Time;durP1;ratioP1;P1;durP2;ratioP2;P2;SDS_P1;SDS_P2;PMS_P1;PMS_P2;Temp;Humidity;BMP_temperature;BMP_pressure;BME280_temperature;BME280_humidity;BME280_pressure;Samples;Min_cycle;Max_cycle;Signal;HPM_P1;HPM_P2
2024/03/27 00:02:07;;;;;;;3.20;2.50;;;12.40;99.90;;;;;;5003680;28;20121;-32
2024/03/27 00:04:33;;;;;;;3.53;2.40;;;12.30;99.90;;;;;;5004131;28;20045;-35
2024/03/27 00:06:58;;;;;;;2.92;2.60;;;12.40;99.90;;;;;;5003899;28;20466;-33
2024/03/27 00:09:24;;;;;;;4.25;2.75;;;12.30;99.90;;;;;;5003076;28;20097;-33
2024/03/27 00:11:50;;;;;;;4.30;2.60;;;12.30;99.90;;;;;;5003495;28;20511;-37
2024/03/27 00:14:19;;;;;;;3.90;2.42;;;12.30;99.90;;;;;;5003113;28;20040;-33
2024/03/27 00:16:45;;;;;;;4.18;2.53;;;12.30;99.90;;;;;;5003700;28;20117;-36
2024/03/27 00:19:12;;;;;;;3.28;2.60;;;12.30;99.90;;;;;;5002443;28;20152;-30
2024/03/27 00:21:37;;;;;;;3.25;2.60;;;12.30;99.90;;;;;;5002940;28;20021;-34
2024/03/27 00:24:03;;;;;;;3.58;2.47;;;12.20;99.90;;;;;;5003198;28;20095;-36
2024/03/27 00:26:32;;;;;;;2.67;2.28;;;12.20;99.90;;;;;;5003041;28;20038;-33
2024/03/27 00:28:58;;;;;;;3.05;2.40;;;12.20;99.90;;;;;;5003065;28;20085;-31
2024/03/27 00:31:24;;;;;;;5.30;2.67;;;12.20;99.90;;;;;;5002986;28;20117;-38
2024/03/27 00:33:50;;;;;;;2.75;2.30;;;12.20;99.90;;;;;;5003627;28;20033;-35
2024/03/27 00:36:16;;;;;;;3.88;2.55;;;12.10;99.90;;;;;;5003651;28;20022;-32
2024/03/27 00:38:42;;;;;;;2.83;2.20;;;12.10;99.90;;;;;;5001821;28;20730;-37
2024/03/27 00:41:07;;;;;;;4.20;2.22;;;12.10;99.90;;;;;;5002143;28;20041;-35
2024/03/27 00:43:33;;;;;;;4.05;2.80;;;12.10;99.90;;;;;;5003199;28;20146;-35
2024/03/27 00:46:05;;;;;;;2.85;2.45;;;12.10;99.90;;;;;;5002009;28;20029;-33
2024/03/27 00:48:31;;;;;;;3.45;2.72;;;12.10;99.90;;;;;;5003276;28;20033;-34
2024/03/27 00:50:57;;;;;;;2.85;2.35;;;12.10;99.90;;;;;;5002878;28;20123;-35
2024/03/27 00:53:24;;;;;;;3.85;2.40;;;12.10;99.90;;;;;;5002710;28;20136;-35
2024/03/27 00:56:03;;;;;;;5.40;2.92;;;12.10;99.90;;;;;;5002835;28;20026;-34
2024/03/27 00:58:29;;;;;;;3.90;2.75;;;12.10;99.90;;;;;;5002582;28;20868;-32
2024/03/27 01:00:57;;;;;;;3.13;2.60;;;12.00;99.90;;;;;;5002279;28;20033;-32
2024/03/27 01:03:41;;;;;;;3.33;2.55;;;12.00;99.90;;;;;;5002593;28;20025;-35
2024/03/27 01:06:07;;;;;;;3.90;2.28;;;11.90;99.90;;;;;;5001351;28;20152;-31
2024/03/27 01:08:33;;;;;;;3.22;2.50;;;11.90;99.90;;;;;;5002484;28;20088;-33
2024/03/27 01:10:58;;;;;;;2.92;2.28;;;11.80;99.90;;;;;;5002388;28;20397;-34
2024/03/27 01:13:24;;;;;;;3.28;2.40;;;11.80;99.90;;;;;;5002192;28;20033;-32
2024/03/27 01:15:56;;;;;;;5.38;2.80;;;11.70;99.90;;;;;;5001833;28;20036;-36
2024/03/27 01:18:21;;;;;;;3.10;2.50;;;11.70;99.90;;;;;;4991740;28;20076;-33
2024/03/27 01:20:47;;;;;;;3.15;2.40;;;11.60;99.90;;;;;;5001015;28;20022;-36
2024/03/27 01:23:13;;;;;;;2.67;2.20;;;11.60;99.90;;;;;;5001836;28;20085;-33
2024/03/27 01:25:39;;;;;;;3.15;2.40;;;11.60;99.90;;;;;;5002115;28;20026;-34
2024/03/27 01:28:06;;;;;;;2.88;2.58;;;11.60;99.90;;;;;;4999385;28;20493;-35
2024/03/27 01:30:31;;;;;;;4.75;2.95;;;11.50;99.90;;;;;;5003283;28;20026;-35
2024/03/27 01:32:57;;;;;;;3.50;2.95;;;11.50;99.90;;;;;;5001752;28;20139;-34
2024/03/27 01:35:24;;;;;;;4.13;2.97;;;11.40;99.90;;;;;;5001729;28;20394;-35
2024/03/27 01:37:49;;;;;;;4.20;2.88;;;11.40;99.90;;;;;;5001514;28;20493;-32
2024/03/27 01:40:15;;;;;;;3.00;2.67;;;11.30;99.90;;;;;;5002104;28;20030;-36
2024/03/27 01:42:40;;;;;;;3.45;3.03;;;11.30;99.90;;;;;;5001676;28;20095;-33
2024/03/27 01:45:11;;;;;;;3.58;2.88;;;11.30;99.90;;;;;;5000798;28;20105;-34
2024/03/27 01:47:40;;;;;;;3.38;2.67;;;11.30;99.90;;;;;;5001578;28;20097;-34
2024/03/27 01:50:13;;;;;;;3.75;2.88;;;11.30;99.90;;;;;;5001488;28;20034;-32
2024/03/27 01:52:42;;;;;;;4.60;3.05;;;11.30;99.90;;;;;;5001311;28;20084;-35
2024/03/27 01:55:08;;;;;;;3.28;2.72;;;11.30;99.90;;;;;;5000399;28;20206;-29
2024/03/27 01:57:36;;;;;;;3.20;2.70;;;11.30;99.90;;;;;;5001517;28;20026;-32
2024/03/27 02:00:04;;;;;;;2.88;2.58;;;11.30;99.90;;;;;;5002013;28;20135;-32
2024/03/27 02:02:29;;;;;;;2.58;2.13;;;11.30;99.90;;;;;;5001507;28;20026;-29
2024/03/27 02:04:55;;;;;;;3.67;2.50;;;11.30;99.90;;;;;;5002019;28;20065;-31
2024/03/27 02:07:21;;;;;;;2.78;2.53;;;11.30;99.90;;;;;;5001902;28;20026;-32
2024/03/27 02:09:49;;;;;;;3.85;2.85;;;11.30;99.90;;;;;;5000948;28;20168;-34
2024/03/27 02:12:15;;;;;;;2.85;2.28;;;11.30;99.90;;;;;;5001339;28;20022;-33
2024/03/27 02:14:40;;;;;;;3.72;2.92;;;11.30;99.90;;;;;;5001661;28;20103;-31
2024/03/27 02:17:06;;;;;;;3.40;2.97;;;11.30;99.90;;;;;;5000103;28;20045;-34
2024/03/27 02:19:32;;;;;;;3.30;2.70;;;11.30;99.90;;;;;;5000803;28;20036;-34
2024/03/27 02:21:57;;;;;;;4.70;2.92;;;11.30;99.90;;;;;;5001199;28;20036;-32
2024/03/27 02:24:28;;;;;;;4.40;3.10;;;11.30;99.90;;;;;;5000181;28;20029;-35
2024/03/27 02:26:54;;;;;;;3.63;2.88;;;11.30;99.90;;;;;;5000809;28;20116;-35
2024/03/27 02:29:23;;;;;;;4.78;3.33;;;11.20;99.90;;;;;;5000310;28;20056;-34
2024/03/27 02:31:48;;;;;;;3.30;2.83;;;11.30;99.90;;;;;;5000229;28;20118;-32
2024/03/27 02:34:14;;;;;;;3.45;2.53;;;11.30;99.90;;;;;;5000161;28;20041;-33
2024/03/27 02:36:39;;;;;;;3.08;2.33;;;11.20;99.90;;;;;;5000717;28;20034;-32
2024/03/27 02:39:07;;;;;;;4.45;2.47;;;11.30;99.90;;;;;;5000133;28;20021;-36
2024/03/27 02:41:35;;;;;;;2.83;2.28;;;11.20;99.90;;;;;;5001233;28;20163;-34
2024/03/27 02:44:01;;;;;;;4.45;2.50;;;11.20;99.90;;;;;;4999633;28;20084;-30
2024/03/27 02:46:26;;;;;;;2.83;2.63;;;11.20;99.90;;;;;;4999544;28;20416;-35
2024/03/27 02:48:52;;;;;;;5.03;2.40;;;11.20;99.90;;;;;;5000978;28;20048;-37
2024/03/27 02:51:27;;;;;;;2.63;2.40;;;11.20;99.90;;;;;;5000270;28;20029;-34
2024/03/27 02:53:52;;;;;;;2.25;2.03;;;11.20;99.90;;;;;;5000784;28;20425;-33
2024/03/27 02:56:24;;;;;;;3.42;2.53;;;11.20;99.90;;;;;;5000338;28;20469;-35
2024/03/27 02:58:49;;;;;;;4.90;2.63;;;11.20;99.90;;;;;;4999342;28;20040;-34
2024/03/27 03:01:15;;;;;;;3.92;2.78;;;11.10;99.90;;;;;;4999222;28;20018;-32
2024/03/27 03:03:41;;;;;;;3.00;2.65;;;11.10;99.90;;;;;;5000409;28;20029;-34
2024/03/27 03:06:09;;;;;;;3.20;2.88;;;11.10;99.90;;;;;;4999197;28;20121;-33
2024/03/27 03:08:35;;;;;;;3.65;2.88;;;11.00;99.90;;;;;;5000720;28;20033;-33
2024/03/27 03:11:00;;;;;;;3.67;2.70;;;11.00;99.90;;;;;;5000725;28;20026;-31
2024/03/27 03:13:26;;;;;;;3.28;2.80;;;11.00;99.90;;;;;;4999987;28;20034;-35
2024/03/27 03:15:52;;;;;;;2.90;2.47;;;10.90;99.90;;;;;;4999978;28;20026;-32
2024/03/27 03:18:17;;;;;;;6.60;2.80;;;11.00;99.90;;;;;;5000134;28;20465;-32
2024/03/27 03:20:43;;;;;;;4.50;2.47;;;10.90;99.90;;;;;;5000325;28;20026;-34
2024/03/27 03:23:08;;;;;;;3.28;2.92;;;10.90;99.90;;;;;;5000532;28;20366;-35
2024/03/27 03:25:34;;;;;;;5.30;2.60;;;10.90;99.90;;;;;;5000171;28;20564;-32
2024/03/27 03:27:59;;;;;;;3.35;2.40;;;10.90;99.90;;;;;;5000120;28;20041;-35
2024/03/27 03:30:25;;;;;;;2.35;2.15;;;11.00;99.90;;;;;;4999463;28;20042;-31
2024/03/27 03:32:51;;;;;;;3.47;2.58;;;11.00;99.90;;;;;;5000062;28;20034;-30
2024/03/27 03:35:16;;;;;;;2.83;2.33;;;11.00;99.90;;;;;;4999943;28;20029;-35
2024/03/27 03:37:42;;;;;;;3.38;2.40;;;11.00;99.90;;;;;;5000098;28;20029;-36
2024/03/27 03:40:09;;;;;;;3.13;2.80;;;11.00;99.90;;;;;;4998410;28;20022;-33
2024/03/27 03:42:34;;;;;;;3.20;2.50;;;11.00;99.90;;;;;;4998316;28;20028;-35
2024/03/27 03:45:01;;;;;;;3.80;2.15;;;11.00;99.90;;;;;;4999535;28;20143;-34
2024/03/27 03:47:30;;;;;;;3.92;2.28;;;11.10;99.90;;;;;;4998529;28;20057;-35
2024/03/27 03:49:56;;;;;;;3.03;2.55;;;11.00;99.90;;;;;;5000269;28;20519;-36
2024/03/27 03:52:21;;;;;;;2.42;2.22;;;11.00;99.90;;;;;;5000240;28;20029;-33
2024/03/27 03:54:47;;;;;;;3.20;2.28;;;11.00;99.90;;;;;;4999448;28;20560;-32
2024/03/27 03:57:12;;;;;;;2.20;2.00;;;11.00;99.90;;;;;;4998774;28;20196;-36
2024/03/27 03:59:38;;;;;;;2.20;2.00;;;11.00;99.90;;;;;;4999590;28;20583;-37
2024/03/27 04:02:03;;;;;;;2.33;1.95;;;11.00;99.90;;;;;;4998569;28;20035;-38
2024/03/27 04:04:29;;;;;;;2.22;2.00;;;11.00;99.90;;;;;;4999850;28;20037;-31
2024/03/27 04:06:55;;;;;;;2.88;2.20;;;11.00;99.90;;;;;;4999460;28;20036;-35
2024/03/27 04:09:21;;;;;;;1.95;1.75;;;11.10;99.90;;;;;;4998842;28;20114;-35
2024/03/27 04:11:47;;;;;;;2.50;2.30;;;11.10;99.90;;;;;;4998949;28;20018;-38
2024/03/27 04:14:13;;;;;;;3.25;2.10;;;11.10;99.90;;;;;;5003661;28;20161;-35
2024/03/27 04:16:39;;;;;;;2.50;2.20;;;11.10;99.90;;;;;;5002944;28;20026;-33
2024/03/27 04:19:05;;;;;;;3.30;2.33;;;11.10;99.90;;;;;;5002971;28;20029;-33
2024/03/27 04:21:31;;;;;;;3.75;2.03;;;11.10;99.90;;;;;;5003617;28;20105;-35
2024/03/27 04:23:56;;;;;;;2.65;2.45;;;11.10;99.90;;;;;;5001504;28;20376;-35
2024/03/27 04:26:22;;;;;;;3.47;2.40;;;11.10;99.90;;;;;;5004471;28;20916;-34
2024/03/27 04:28:48;;;;;;;2.60;2.10;;;11.10;99.90;;;;;;5002742;28;20508;-33
2024/03/27 04:31:13;;;;;;;3.70;2.40;;;11.20;99.90;;;;;;5003141;28;20670;-32
2024/03/27 04:33:39;;;;;;;2.72;2.10;;;11.20;99.90;;;;;;5002976;28;20155;-35
2024/03/27 04:36:05;;;;;;;3.17;2.55;;;11.10;99.90;;;;;;5002401;28;20030;-33
2024/03/27 04:38:31;;;;;;;3.03;2.10;;;11.10;99.90;;;;;;5003420;28;20350;-34
2024/03/27 04:40:57;;;;;;;2.38;2.00;;;11.10;99.90;;;;;;5003640;28;20037;-33
2024/03/27 04:43:22;;;;;;;2.90;2.47;;;11.10;99.90;;;;;;5003138;28;20243;-35
2024/03/27 04:45:48;;;;;;;3.05;2.08;;;11.10;99.90;;;;;;5003414;28;20389;-37
2024/03/27 04:48:13;;;;;;;2.00;1.90;;;11.00;99.90;;;;;;5001876;28;20473;-37
2024/03/27 04:50:39;;;;;;;2.78;2.15;;;11.00;99.90;;;;;;5002855;28;20041;-36
2024/03/27 04:53:05;;;;;;;3.33;2.28;;;10.90;99.90;;;;;;5002037;28;20480;-32
2024/03/27 04:55:30;;;;;;;2.25;1.90;;;10.90;99.90;;;;;;5002995;28;20046;-38
2024/03/27 04:57:56;;;;;;;2.95;2.10;;;10.90;99.90;;;;;;5001940;28;20022;-35
2024/03/27 05:00:21;;;;;;;3.45;2.50;;;10.90;99.90;;;;;;5002243;28;20536;-36
2024/03/27 05:02:47;;;;;;;3.83;2.08;;;10.80;99.90;;;;;;5003443;28;20041;-33
2024/03/27 05:05:14;;;;;;;3.85;1.90;;;10.90;99.90;;;;;;5002212;28;20032;-31
2024/03/27 05:07:40;;;;;;;2.72;1.92;;;10.90;99.90;;;;;;5003782;28;20101;-34
2024/03/27 05:10:06;;;;;;;4.30;2.08;;;10.90;99.90;;;;;;5002378;28;20037;-33
2024/03/27 05:12:32;;;;;;;2.08;1.88;;;11.00;99.90;;;;;;5000435;28;20030;-36
2024/03/27 05:14:57;;;;;;;3.05;2.05;;;11.00;99.90;;;;;;5000372;28;20037;-34
2024/03/27 05:17:23;;;;;;;3.03;2.00;;;11.00;99.90;;;;;;5000418;28;20026;-34
2024/03/27 05:19:49;;;;;;;3.13;2.28;;;11.00;99.90;;;;;;5000182;28;20022;-33
2024/03/27 05:22:15;;;;;;;2.35;1.90;;;11.00;99.90;;;;;;5000718;28;20029;-31
2024/03/27 05:24:45;;;;;;;2.60;2.20;;;11.00;99.90;;;;;;4999486;28;20014;-36
2024/03/27 05:27:11;;;;;;;2.65;2.10;;;11.00;99.90;;;;;;4999946;28;20582;-38
2024/03/27 05:29:37;;;;;;;2.55;2.03;;;11.10;99.90;;;;;;5002152;28;20128;-33
2024/03/27 05:32:02;;;;;;;4.88;2.10;;;11.10;99.90;;;;;;5001570;28;20022;-36
2024/03/27 05:34:28;;;;;;;3.10;2.10;;;11.20;99.90;;;;;;5001008;28;20045;-32
2024/03/27 05:36:54;;;;;;;2.30;2.10;;;11.20;99.90;;;;;;5001632;28;20045;-35
2024/03/27 05:39:20;;;;;;;2.90;1.90;;;11.20;99.90;;;;;;5000878;28;20066;-36
2024/03/27 05:41:46;;;;;;;2.13;1.80;;;11.20;99.90;;;;;;5001765;28;20014;-34
2024/03/27 05:44:12;;;;;;;2.30;2.10;;;11.30;99.90;;;;;;5001535;28;20026;-35
2024/03/27 05:46:39;;;;;;;2.10;1.70;;;11.30;99.90;;;;;;5001553;28;20026;-33
2024/03/27 05:49:05;;;;;;;3.75;1.88;;;11.40;99.90;;;;;;5000819;28;20579;-35
2024/03/27 05:51:34;;;;;;;1.98;1.73;;;11.30;99.90;;;;;;5001512;28;20034;-34
2024/03/27 05:54:00;;;;;;;2.22;2.00;;;11.40;99.90;;;;;;5001009;28;20041;-35
2024/03/27 05:56:26;;;;;;;2.28;2.00;;;11.40;99.90;;;;;;5000748;28;20034;-35
2024/03/27 05:58:52;;;;;;;2.35;1.92;;;11.40;99.90;;;;;;5001907;28;20053;-33
2024/03/27 06:01:18;;;;;;;3.40;2.10;;;11.40;99.90;;;;;;5000578;28;20068;-35
2024/03/27 06:03:48;;;;;;;1.58;1.48;;;11.40;99.90;;;;;;5002106;28;20022;-36
2024/03/27 06:06:13;;;;;;;2.20;1.60;;;11.40;99.90;;;;;;5001116;28;20133;-36
2024/03/27 06:08:39;;;;;;;1.77;1.67;;;11.40;99.90;;;;;;5000453;28;20675;-31
2024/03/27 06:11:04;;;;;;;1.70;1.60;;;11.40;99.90;;;;;;5001117;28;20026;-33
2024/03/27 06:13:30;;;;;;;2.25;2.00;;;11.40;99.90;;;;;;5001713;28;20796;-36
2024/03/27 06:15:56;;;;;;;1.70;1.60;;;11.40;99.90;;;;;;5001105;28;20033;-33
2024/03/27 06:18:21;;;;;;;1.58;1.48;;;11.40;99.90;;;;;;5001421;28;20022;-36
2024/03/27 06:20:47;;;;;;;1.80;1.70;;;11.40;99.90;;;;;;5001250;28;20480;-36
2024/03/27 06:23:13;;;;;;;1.75;1.65;;;11.40;99.90;;;;;;5001316;28;20044;-33
2024/03/27 06:25:40;;;;;;;2.20;1.80;;;11.40;99.90;;;;;;5001038;28;20495;-34
2024/03/27 06:28:05;;;;;;;3.60;2.28;;;11.50;99.90;;;;;;4999432;28;20026;-31
2024/03/27 06:30:31;;;;;;;2.25;2.03;;;11.50;99.90;;;;;;5000531;28;20030;-33
2024/03/27 06:32:57;;;;;;;3.40;2.00;;;11.50;99.90;;;;;;5000589;28;20029;-37
2024/03/27 06:35:23;;;;;;;2.53;2.33;;;11.50;99.90;;;;;;5000593;28;20041;-35
2024/03/27 06:37:49;;;;;;;2.55;2.35;;;11.50;99.90;;;;;;4998418;28;20057;-36
2024/03/27 06:40:14;;;;;;;4.30;3.13;;;11.50;99.90;;;;;;5000282;28;20564;-33
2024/03/27 06:42:42;;;;;;;4.05;3.65;;;11.50;99.90;;;;;;4999781;28;20025;-33
2024/03/27 06:45:09;;;;;;;4.05;3.70;;;11.50;99.90;;;;;;5000243;28;20733;-33
2024/03/27 06:47:35;;;;;;;3.30;3.00;;;11.50;99.90;;;;;;4999788;28;20018;-32
2024/03/27 06:50:01;;;;;;;4.72;3.15;;;11.40;99.90;;;;;;4998531;28;20727;-33
2024/03/27 06:52:27;;;;;;;3.65;3.35;;;11.40;99.90;;;;;;4997940;28;20068;-35
2024/03/27 06:54:55;;;;;;;4.50;4.10;;;11.40;99.90;;;;;;4999268;28;20049;-37
2024/03/27 06:57:21;;;;;;;4.75;4.25;;;11.40;99.90;;;;;;4998460;28;20022;-34
2024/03/27 06:59:46;;;;;;;5.70;5.00;;;11.30;99.90;;;;;;4998569;28;20030;-32
2024/03/27 07:02:12;;;;;;;5.45;4.93;;;11.30;99.90;;;;;;4997828;28;20030;-33
2024/03/27 07:04:38;;;;;;;6.75;6.05;;;11.30;99.90;;;;;;4997297;28;20568;-35
2024/03/27 07:07:04;;;;;;;7.05;6.35;;;11.20;99.90;;;;;;4999517;28;20065;-35
2024/03/27 07:09:32;;;;;;;9.30;7.35;;;11.20;99.90;;;;;;4999997;28;20101;-32
2024/03/27 07:11:58;;;;;;;7.85;7.07;;;11.10;99.90;;;;;;4999942;28;20142;-31
2024/03/27 07:14:23;;;;;;;8.38;7.10;;;11.00;99.90;;;;;;5000027;28;20486;-31
2024/03/27 07:16:52;;;;;;;8.25;6.38;;;11.00;99.90;;;;;;4998745;28;20424;-30
2024/03/27 07:19:17;;;;;;;7.95;7.00;;;10.90;99.90;;;;;;4998399;28;20112;-33
2024/03/27 07:21:43;;;;;;;7.20;6.50;;;10.80;99.90;;;;;;4999200;28;20034;-35
2024/03/27 07:24:08;;;;;;;6.43;5.82;;;10.70;99.90;;;;;;4999358;28;20030;-34
2024/03/27 07:26:43;;;;;;;5.80;5.20;;;10.70;99.90;;;;;;5000361;28;20113;-31
2024/03/27 07:29:08;;;;;;;5.47;4.95;;;10.60;99.90;;;;;;4999953;28;20061;-30
2024/03/27 07:31:34;;;;;;;5.18;4.68;;;10.60;99.90;;;;;;5000940;28;20579;-32
2024/03/27 07:34:00;;;;;;;5.35;4.85;;;10.60;99.90;;;;;;5000586;28;20041;-31
2024/03/27 07:36:25;;;;;;;6.20;5.53;;;10.50;99.90;;;;;;5000539;28;20049;-33
2024/03/27 07:38:51;;;;;;;7.38;6.68;;;10.60;99.90;;;;;;4999649;28;20042;-29
2024/03/27 07:41:17;;;;;;;8.05;7.25;;;10.50;99.90;;;;;;5000084;28;20137;-31
2024/03/27 07:43:42;;;;;;;9.05;8.10;;;10.50;99.90;;;;;;4999631;28;20060;-32
2024/03/27 07:46:11;;;;;;;9.07;8.18;;;10.40;99.90;;;;;;4999239;28;20033;-33
2024/03/27 07:48:37;;;;;;;9.38;7.93;;;10.30;99.90;;;;;;5003380;28;20049;-33
2024/03/27 07:51:02;;;;;;;8.48;7.65;;;10.20;99.90;;;;;;5004384;28;20026;-42
2024/03/27 07:53:34;;;;;;;7.35;6.65;;;10.20;99.90;;;;;;5003490;28;20032;-30
2024/03/27 07:56:05;;;;;;;7.20;6.50;;;10.10;99.90;;;;;;5003816;28;20026;-34
2024/03/27 07:58:39;;;;;;;6.75;6.05;;;10.10;99.90;;;;;;5004563;28;20026;-34
2024/03/27 08:01:05;;;;;;;6.68;5.97;;;10.10;99.90;;;;;;5003051;28;20637;-32
2024/03/27 08:03:33;;;;;;;5.68;5.18;;;10.10;99.90;;;;;;5004518;28;20029;-32
2024/03/27 08:05:59;;;;;;;5.30;4.80;;;10.10;99.90;;;;;;5004041;28;20022;-35
2024/03/27 08:08:25;;;;;;;6.47;5.45;;;10.10;99.90;;;;;;5003407;28;20036;-31
2024/03/27 08:10:57;;;;;;;4.90;4.38;;;10.10;99.90;;;;;;5003614;28;20030;-32
2024/03/27 08:13:26;;;;;;;4.78;4.35;;;10.10;99.90;;;;;;5004462;28;20638;-32
2024/03/27 08:15:52;;;;;;;4.90;4.30;;;10.20;99.90;;;;;;5003226;28;20165;-31
2024/03/27 08:18:17;;;;;;;5.80;5.25;;;10.20;99.90;;;;;;5004143;28;20036;-33
2024/03/27 08:20:55;;;;;;;6.70;6.00;;;10.20;99.90;;;;;;5002976;28;21001;-34
2024/03/27 08:23:20;;;;;;;6.63;5.35;;;10.20;99.90;;;;;;5003541;28;20771;-36
2024/03/27 08:25:46;;;;;;;6.32;5.45;;;10.20;99.90;;;;;;5003707;28;20029;-34
2024/03/27 08:28:12;;;;;;;8.10;6.38;;;10.20;99.90;;;;;;5002585;28;20029;-32
2024/03/27 08:30:41;;;;;;;9.02;7.82;;;10.20;99.90;;;;;;5003236;28;20225;-35
2024/03/27 08:33:06;;;;;;;9.07;6.80;;;10.20;99.90;;;;;;5002591;28;20080;-33
2024/03/27 08:35:32;;;;;;;7.35;6.50;;;10.30;99.90;;;;;;5002954;28;20034;-31
2024/03/27 08:37:58;;;;;;;9.00;8.15;;;10.30;99.90;;;;;;5003321;28;20099;-32
2024/03/27 08:40:23;;;;;;;8.70;7.90;;;10.20;99.90;;;;;;5002840;28;20026;-33
2024/03/27 08:42:49;;;;;;;8.00;7.30;;;10.30;99.90;;;;;;5002466;28;20148;-33
2024/03/27 08:45:14;;;;;;;7.93;7.18;;;10.30;99.90;;;;;;5004033;28;20112;-35
2024/03/27 08:47:40;;;;;;;7.65;6.88;;;10.30;99.90;;;;;;5003517;28;20026;-31
2024/03/27 08:50:08;;;;;;;7.88;7.05;;;10.40;99.90;;;;;;5002604;28;20033;-33
2024/03/27 08:52:33;;;;;;;7.68;6.97;;;10.50;99.90;;;;;;5002922;28;20767;-31
2024/03/27 08:54:59;;;;;;;8.10;7.30;;;10.50;99.90;;;;;;5002390;28;20077;-34
2024/03/27 08:57:24;;;;;;;7.93;6.93;;;10.70;99.90;;;;;;5001151;28;20707;-32
2024/03/27 08:59:50;;;;;;;9.07;8.00;;;10.70;99.90;;;;;;5001909;28;20041;-32
2024/03/27 09:02:15;;;;;;;7.25;6.55;;;10.80;99.90;;;;;;5002833;28;20062;-31
2024/03/27 09:04:41;;;;;;;8.00;7.20;;;10.90;99.90;;;;;;5002602;28;20129;-35
2024/03/27 09:07:07;;;;;;;7.80;7.00;;;10.90;99.90;;;;;;5002843;28;20495;-35
2024/03/27 09:09:33;;;;;;;6.97;6.28;;;11.00;99.90;;;;;;5003079;28;20485;-33
2024/03/27 09:12:01;;;;;;;7.85;7.05;;;11.10;99.90;;;;;;4999351;28;20045;-31
2024/03/27 09:14:27;;;;;;;8.18;7.38;;;11.10;99.90;;;;;;5002604;28;20543;-34
2024/03/27 09:16:53;;;;;;;7.65;6.88;;;11.20;99.90;;;;;;5002141;28;20034;-36
2024/03/27 09:19:18;;;;;;;8.10;7.25;;;11.30;99.90;;;;;;5002138;28;20038;-30
2024/03/27 09:21:45;;;;;;;7.68;6.90;;;11.30;99.90;;;;;;5002067;28;20096;-33
2024/03/27 09:24:10;;;;;;;7.90;7.20;;;11.30;99.90;;;;;;5000192;28;20037;-31
2024/03/27 09:26:36;;;;;;;8.02;7.22;;;11.30;99.90;;;;;;5002218;28;20037;-36
2024/03/27 09:29:04;;;;;;;8.63;7.82;;;11.30;99.90;;;;;;5001445;28;20075;-32
2024/03/27 09:31:30;;;;;;;9.23;8.32;;;11.30;99.90;;;;;;5002606;28;20088;-34
2024/03/27 09:33:55;;;;;;;8.60;7.80;;;11.30;99.90;;;;;;5001998;28;20703;-31
2024/03/27 09:36:22;;;;;;;9.13;8.23;;;11.20;99.90;;;;;;5002037;28;20658;-31
2024/03/27 09:38:48;;;;;;;8.43;7.63;;;11.20;99.90;;;;;;5001173;28;20053;-33
2024/03/27 09:41:14;;;;;;;7.55;6.85;;;11.20;99.90;;;;;;5002104;28;20030;-34
2024/03/27 09:43:43;;;;;;;8.38;7.57;;;11.20;99.90;;;;;;5002551;28;20128;-33
2024/03/27 09:46:10;;;;;;;8.10;7.30;;;11.20;99.90;;;;;;5001461;28;20030;-37
2024/03/27 09:48:42;;;;;;;7.07;6.38;;;11.20;99.90;;;;;;5002388;28;20018;-36
2024/03/27 09:51:08;;;;;;;6.63;6.03;;;11.20;99.90;;;;;;5001907;28;20037;-32
2024/03/27 09:53:43;;;;;;;7.78;6.97;;;11.20;99.90;;;;;;5001207;28;20030;-34
2024/03/27 09:56:11;;;;;;;7.43;6.68;;;11.20;99.90;;;;;;5001847;28;20057;-35
2024/03/27 09:58:37;;;;;;;6.68;6.07;;;11.20;99.90;;;;;;5002256;28;20033;-30
2024/03/27 10:01:06;;;;;;;8.00;7.25;;;11.30;99.90;;;;;;5001591;28;20026;-29
2024/03/27 10:03:34;;;;;;;7.32;6.68;;;11.30;99.90;;;;;;5001442;28;20036;-33
2024/03/27 10:06:00;;;;;;;8.07;7.03;;;11.30;99.90;;;;;;5001356;28;20033;-34
2024/03/27 10:08:26;;;;;;;7.50;6.80;;;11.30;99.90;;;;;;5000843;28;20031;-35
2024/03/27 10:10:56;;;;;;;8.02;7.22;;;11.40;99.90;;;;;;5001409;28;20610;-34
2024/03/27 10:13:22;;;;;;;7.50;6.57;;;11.30;99.90;;;;;;5001419;28;20885;-33
2024/03/27 10:15:51;;;;;;;6.30;5.70;;;11.40;99.90;;;;;;5001110;28;20041;-36
2024/03/27 10:18:17;;;;;;;7.30;6.60;;;11.40;99.90;;;;;;5001637;28;20052;-35
2024/03/27 10:20:43;;;;;;;5.57;5.07;;;11.40;99.90;;;;;;5001300;28;21419;-34
2024/03/27 10:23:15;;;;;;;5.65;5.10;;;11.40;99.90;;;;;;5001118;28;20037;-38
2024/03/27 10:25:41;;;;;;;5.35;4.75;;;11.40;99.90;;;;;;5001625;28;20033;-34
2024/03/27 10:28:10;;;;;;;6.53;4.50;;;11.40;99.90;;;;;;5000754;28;20021;-33
2024/03/27 10:30:39;;;;;;;5.40;4.30;;;11.40;99.90;;;;;;5000913;28;20764;-36
2024/03/27 10:33:05;;;;;;;6.20;4.03;;;11.40;99.90;;;;;;5001039;28;20033;-34
2024/03/27 10:35:37;;;;;;;4.93;3.97;;;11.30;99.90;;;;;;5000821;28;20045;-32
2024/03/27 10:38:03;;;;;;;;;;;11.30;99.90;;;;;;5001609;28;20064;-36
2024/03/27 10:40:29;;;;;;;3.75;3.17;;;11.20;99.90;;;;;;5001041;28;20461;-33
2024/03/27 10:43:14;;;;;;;3.38;3.08;;;11.10;99.90;;;;;;5000131;28;20030;-33
2024/03/27 10:45:41;;;;;;;3.10;2.80;;;11.10;99.90;;;;;;5001163;28;20055;-32
2024/03/27 10:48:07;;;;;;;3.25;2.78;;;11.20;99.90;;;;;;5000687;28;20030;-34
2024/03/27 10:50:36;;;;;;;3.22;2.92;;;11.20;99.90;;;;;;5000543;28;20025;-36
2024/03/27 10:53:04;;;;;;;3.47;3.17;;;11.30;99.90;;;;;;5001238;28;20029;-36
2024/03/27 10:55:32;;;;;;;5.15;3.13;;;11.30;99.90;;;;;;5000701;28;20081;-35
2024/03/27 10:58:00;;;;;;;4.05;3.45;;;11.40;99.90;;;;;;5000624;28;20469;-32
2024/03/27 11:00:26;;;;;;;4.43;3.40;;;11.40;99.90;;;;;;5001164;28;20033;-32
2024/03/27 11:02:57;;;;;;;3.60;3.17;;;11.40;99.90;;;;;;5000509;28;20025;-34
2024/03/27 11:05:27;;;;;;;3.10;2.80;;;11.40;99.90;;;;;;5001039;28;20022;-34
2024/03/27 11:08:03;;;;;;;3.28;2.97;;;11.40;99.90;;;;;;5000242;28;20026;-34
2024/03/27 11:10:29;;;;;;;3.60;3.30;;;11.40;99.90;;;;;;5000657;28;20032;-30
2024/03/27 11:12:59;;;;;;;3.97;3.50;;;11.50;99.90;;;;;;5000938;28;20025;-33
2024/03/27 11:15:26;;;;;;;4.05;3.65;;;11.50;99.90;;;;;;5000938;28;20115;-34
2024/03/27 11:17:57;;;;;;;4.13;3.40;;;11.50;99.90;;;;;;5000335;28;20024;-32
2024/03/27 11:20:26;;;;;;;4.15;3.50;;;11.50;99.90;;;;;;5000752;28;20029;-37
2024/03/27 11:22:56;;;;;;;4.13;3.30;;;11.40;99.90;;;;;;4999985;28;20104;-34
2024/03/27 11:25:26;;;;;;;4.70;3.65;;;11.40;99.90;;;;;;5000158;28;20069;-32
2024/03/27 11:27:51;;;;;;;5.80;4.22;;;11.40;99.90;;;;;;5000218;28;20041;-32
2024/03/27 11:30:21;;;;;;;4.00;3.60;;;11.40;99.90;;;;;;5001071;28;20050;-33
2024/03/27 11:32:49;;;;;;;4.07;3.53;;;11.50;99.90;;;;;;5000074;28;20065;-32
2024/03/27 11:35:16;;;;;;;4.03;3.58;;;11.50;99.90;;;;;;5000690;28;20040;-31
2024/03/27 11:37:45;;;;;;;3.65;3.15;;;11.50;99.90;;;;;;5000631;28;20033;-35
2024/03/27 11:40:11;;;;;;;3.38;2.90;;;11.60;99.90;;;;;;5000442;28;20029;-36
2024/03/27 11:42:36;;;;;;;3.30;2.70;;;11.60;99.90;;;;;;5001279;28;20022;-33
2024/03/27 11:45:03;;;;;;;3.65;3.17;;;11.60;99.90;;;;;;5000096;28;20654;-36
2024/03/27 11:47:32;;;;;;;2.92;2.63;;;11.70;99.90;;;;;;5000082;28;20030;-35
2024/03/27 11:49:58;;;;;;;2.97;2.67;;;11.60;99.90;;;;;;4999861;28;20117;-35
2024/03/27 11:52:25;;;;;;;3.33;2.90;;;11.60;99.90;;;;;;4999049;28;20036;-33
2024/03/27 11:54:54;;;;;;;2.95;2.75;;;11.60;99.90;;;;;;4999954;28;20041;-34
2024/03/27 11:57:20;;;;;;;3.20;2.90;;;11.70;99.90;;;;;;4999683;28;20026;-35
2024/03/27 11:59:46;;;;;;;3.10;2.72;;;11.80;99.90;;;;;;4999634;28;20033;-34
2024/03/27 12:02:11;;;;;;;3.33;2.90;;;11.80;99.90;;;;;;4999833;28;20022;-34
2024/03/27 12:04:39;;;;;;;2.70;2.33;;;11.80;99.90;;;;;;5000361;28;20598;-35
2024/03/27 12:07:05;;;;;;;2.88;2.30;;;11.80;99.90;;;;;;4999492;28;20109;-39
2024/03/27 12:09:36;;;;;;;3.63;2.55;;;11.70;99.90;;;;;;5000421;28;20041;-35
2024/03/27 12:12:01;;;;;;;2.50;2.30;;;11.80;99.90;;;;;;5000207;28;20706;-32
2024/03/27 12:14:27;;;;;;;2.80;2.50;;;11.70;99.90;;;;;;4999206;28;20038;-35
2024/03/27 12:16:53;;;;;;;3.88;2.88;;;11.70;99.90;;;;;;5000317;28;20531;-34
2024/03/27 12:19:19;;;;;;;2.65;2.13;;;11.80;99.90;;;;;;5000149;28;20033;-34
2024/03/27 12:21:44;;;;;;;2.70;2.42;;;11.90;99.90;;;;;;4999988;28;20861;-34
2024/03/27 12:24:10;;;;;;;2.22;2.03;;;11.90;99.90;;;;;;4999574;28;20060;-33
2024/03/27 12:26:38;;;;;;;2.20;2.00;;;11.90;99.90;;;;;;5000499;28;20037;-37
2024/03/27 12:29:06;;;;;;;3.10;1.90;;;12.00;99.90;;;;;;4998780;28;20053;-35
2024/03/27 12:31:32;;;;;;;2.92;2.45;;;12.00;99.90;;;;;;5000108;28;20484;-33
2024/03/27 12:33:58;;;;;;;3.22;2.92;;;12.10;99.90;;;;;;4998997;28;20037;-36
2024/03/27 12:36:24;;;;;;;4.00;3.03;;;12.10;99.90;;;;;;5002964;28;20076;-34
2024/03/27 12:38:50;;;;;;;3.30;3.00;;;12.00;99.90;;;;;;5004022;28;20732;-32
2024/03/27 12:41:15;;;;;;;3.30;3.00;;;12.00;99.90;;;;;;5003496;28;20029;-32
2024/03/27 12:43:41;;;;;;;3.72;2.95;;;12.00;99.90;;;;;;5003941;28;20022;-34
2024/03/27 12:46:07;;;;;;;2.72;2.50;;;12.00;99.90;;;;;;5003366;28;20068;-29